Time;durP1;ratioP1;P1;durP2;ratioP2;P2;SDS_P1;SDS_P2;PMS_P1;PMS_P2;Temp;Humidity;BMP_temperature;BMP_pressure;BME280_temperature;BME280_humidity;BME280_pressure;Samples;Min_cycle;Max_cycle;Signal;HPM_P1;HPM_P2
2021/12/21 00:00:40;;;;;;;23.35;9.27;;;2.80;99.90;;;;;;5070355;28;20081;-87
2021/12/21 00:03:05;;;;;;;22.63;9.70;;;2.70;99.90;;;;;;5094983;28;20540;-87
2021/12/21 00:05:31;;;;;;;21.60;8.70;;;2.70;99.90;;;;;;5078100;28;20131;-87
2021/12/21 00:08:01;;;;;;;18.70;9.15;;;2.80;99.90;;;;;;5089398;28;20099;-87
2021/12/21 00:10:32;;;;;;;26.10;10.30;;;2.70;99.90;;;;;;5093288;28;20028;-86
2021/12/21 00:13:20;;;;;;;20.95;9.18;;;2.70;99.90;;;;;;5088132;28;20069;-87
2021/12/21 00:18:34;;;;;;;22.70;10.75;;;2.70;99.90;;;;;;5079385;28;20093;-86
2021/12/21 00:23:47;;;;;;;25.73;11.10;;;2.60;99.90;;;;;;5102898;28;20500;-86
2021/12/21 00:26:15;;;;;;;21.77;9.85;;;2.60;99.90;;;;;;5063339;28;20085;-87
2021/12/21 00:28:59;;;;;;;25.83;10.00;;;2.50;99.90;;;;;;5094720;28;20016;-87
2021/12/21 00:31:27;;;;;;;20.40;10.43;;;2.60;99.90;;;;;;5096663;28;20107;-87
2021/12/21 00:33:54;;;;;;;23.85;10.43;;;2.50;99.90;;;;;;5094503;28;20020;-86
2021/12/21 00:36:23;;;;;;;22.50;10.27;;;2.50;99.90;;;;;;5078824;28;20024;-87
2021/12/21 00:38:50;;;;;;;19.67;9.38;;;2.50;99.90;;;;;;5094498;28;20465;-86
2021/12/21 00:41:17;;;;;;;20.73;9.02;;;2.50;99.90;;;;;;5061830;28;20027;-87
2021/12/21 00:43:44;;;;;;;21.05;10.02;;;2.50;99.90;;;;;;5077694;28;20054;-87
2021/12/21 00:46:10;;;;;;;25.35;10.23;;;2.40;99.90;;;;;;5094393;28;20072;-86
2021/12/21 00:48:37;;;;;;;23.27;10.10;;;2.40;99.90;;;;;;5094752;28;20032;-87
2021/12/21 00:51:06;;;;;;;22.35;9.95;;;2.40;99.90;;;;;;5094287;28;20020;-87
2021/12/21 00:53:34;;;;;;;23.33;9.38;;;2.40;99.90;;;;;;5115162;28;20127;-86
2021/12/21 00:56:00;;;;;;;20.08;9.38;;;2.40;99.90;;;;;;5094263;28;20020;-87
2021/12/21 00:58:26;;;;;;;24.52;10.77;;;2.30;99.90;;;;;;5079640;28;20535;-87
2021/12/21 01:00:52;;;;;;;19.20;8.80;;;2.40;99.90;;;;;;5060891;28;20393;-87
2021/12/21 01:03:18;;;;;;;28.35;10.25;;;2.30;99.90;;;;;;5061611;28;20023;-87
2021/12/21 01:08:17;;;;;;;22.77;10.45;;;2.30;99.90;;;;;;5077920;28;20450;-86
2021/12/21 01:16:22;;;;;;;19.67;9.02;;;2.20;99.90;;;;;;5093582;28;20043;-86
2021/12/21 01:19:12;;;;;;;23.17;10.38;;;2.20;99.90;;;;;;5097333;28;20081;-86
2021/12/21 01:21:56;;;;;;;21.27;8.57;;;2.20;99.90;;;;;;5082941;28;20118;-86
2021/12/21 01:24:51;;;;;;;23.20;9.80;;;2.20;99.90;;;;;;5097036;28;20055;-86
2021/12/21 01:27:43;;;;;;;27.05;9.60;;;2.10;99.90;;;;;;5081432;28;20474;-86
2021/12/21 01:30:29;;;;;;;23.98;9.65;;;2.10;99.90;;;;;;5093475;28;20046;-86
2021/12/21 01:35:41;;;;;;;23.00;10.48;;;2.10;99.90;;;;;;5084652;28;20438;-86
2021/12/21 01:38:21;;;;;;;20.23;9.90;;;2.00;99.90;;;;;;5093637;28;20031;-86
2021/12/21 01:43:46;;;;;;;21.13;9.68;;;2.00;99.90;;;;;;5100046;28;20618;-86
2021/12/21 01:51:40;;;;;;;20.10;10.00;;;1.90;99.90;;;;;;5099800;28;20043;-86
2021/12/21 01:54:06;;;;;;;20.60;8.88;;;1.90;99.90;;;;;;5093417;28;20016;-86
2021/12/21 01:56:32;;;;;;;21.33;10.35;;;1.90;99.90;;;;;;5079461;28;20028;-86
2021/12/21 01:58:58;;;;;;;21.13;10.00;;;1.90;99.90;;;;;;5093200;28;20113;-86
2021/12/21 02:01:26;;;;;;;25.80;10.40;;;1.80;99.90;;;;;;5095062;28;20028;-86
2021/12/21 02:03:54;;;;;;;22.38;9.07;;;1.80;99.90;;;;;;5093707;28;20024;-86
2021/12/21 02:06:26;;;;;;;19.58;9.63;;;1.80;99.90;;;;;;5077365;28;20030;-86
2021/12/21 02:08:52;;;;;;;22.85;9.40;;;1.80;99.90;;;;;;5093253;28;20036;-86
2021/12/21 02:11:19;;;;;;;24.08;9.98;;;1.80;99.90;;;;;;5094042;28;20020;-86
2021/12/21 02:13:48;;;;;;;21.50;10.30;;;1.80;99.90;;;;;;5114591;28;20077;-86
2021/12/21 02:16:22;;;;;;;20.45;10.38;;;1.80;99.90;;;;;;5093700;28;20020;-86
2021/12/21 02:19:00;;;;;;;20.65;9.60;;;1.70;99.90;;;;;;5077529;28;20059;-86
2021/12/21 02:21:34;;;;;;;21.15;10.07;;;1.70;99.90;;;;;;5095144;28;20112;-86
2021/12/21 02:24:06;;;;;;;27.27;11.32;;;1.70;99.90;;;;;;5077409;28;20056;-86
2021/12/21 02:29:10;;;;;;;21.33;9.43;;;1.70;99.90;;;;;;5118545;28;20473;-86
2021/12/21 02:31:38;;;;;;;21.48;9.73;;;1.70;99.90;;;;;;5099193;28;20024;-86
2021/12/21 02:34:05;;;;;;;23.20;10.10;;;1.60;99.90;;;;;;5097039;28;20461;-86
2021/12/21 02:36:31;;;;;;;21.55;10.23;;;1.60;99.90;;;;;;5099384;28;20024;-86
2021/12/21 02:38:57;;;;;;;23.83;10.15;;;1.60;99.90;;;;;;5096983;28;20027;-86
2021/12/21 02:41:24;;;;;;;22.92;10.48;;;1.60;99.90;;;;;;5081417;28;20028;-86
2021/12/21 02:43:50;;;;;;;20.00;9.70;;;1.60;99.90;;;;;;5096801;28;20020;-85
2021/12/21 02:46:16;;;;;;;20.02;10.15;;;1.60;99.90;;;;;;5080496;28;20034;-86
2021/12/21 02:48:42;;;;;;;22.33;9.68;;;1.60;99.90;;;;;;5096582;28;20024;-86
2021/12/21 02:51:07;;;;;;;23.35;10.07;;;1.50;99.90;;;;;;5079693;28;20115;-86
2021/12/21 02:53:33;;;;;;;23.52;9.77;;;1.50;99.90;;;;;;5117628;28;20031;-86
2021/12/21 02:55:59;;;;;;;20.88;9.20;;;1.50;99.90;;;;;;5096631;28;20032;-86
2021/12/21 02:58:24;;;;;;;22.88;9.73;;;1.50;99.90;;;;;;5098102;28;20032;-86
2021/12/21 03:00:57;;;;;;;17.70;9.23;;;1.50;99.90;;;;;;5096410;28;20032;-86
2021/12/21 03:03:23;;;;;;;25.52;10.50;;;1.50;99.90;;;;;;5097901;28;20442;-86
2021/12/21 03:05:52;;;;;;;21.45;9.40;;;1.50;99.90;;;;;;5079413;28;20116;-86
2021/12/21 03:08:36;;;;;;;20.85;10.25;;;1.40;99.90;;;;;;5097167;28;20082;-86
2021/12/21 03:16:16;;;;;;;23.50;10.45;;;1.40;99.90;;;;;;5096960;28;20086;-85
2021/12/21 03:18:45;;;;;;;19.00;9.48;;;1.40;99.90;;;;;;5071450;28;20124;-86
2021/12/21 03:21:11;;;;;;;21.10;9.50;;;1.40;99.90;;;;;;5075879;28;20021;-86
2021/12/21 03:23:38;;;;;;;19.63;9.93;;;1.40;99.90;;;;;;5088799;28;20060;-86
2021/12/21 03:26:04;;;;;;;17.42;8.85;;;1.30;99.90;;;;;;5075893;28;20044;-86
2021/12/21 03:28:30;;;;;;;22.88;9.40;;;1.30;99.90;;;;;;5078102;28;20032;-86
2021/12/21 03:30:56;;;;;;;21.40;10.23;;;1.30;99.90;;;;;;5075822;28;20035;-86
2021/12/21 03:33:22;;;;;;;18.73;8.75;;;1.30;99.90;;;;;;5060355;28;20033;-86
2021/12/21 03:35:48;;;;;;;20.42;9.68;;;1.30;99.90;;;;;;5075451;28;20032;-86
2021/12/21 03:38:15;;;;;;;20.33;9.82;;;1.30;99.90;;;;;;5063590;28;20032;-86
2021/12/21 03:40:41;;;;;;;20.17;8.60;;;1.30;99.90;;;;;;5095613;28;20050;-86
2021/12/21 03:43:06;;;;;;;20.50;9.57;;;1.30;99.90;;;;;;5095655;28;20020;-86
2021/12/21 03:45:37;;;;;;;18.20;9.48;;;1.30;99.90;;;;;;5081540;28;20463;-86
2021/12/21 03:48:03;;;;;;;16.15;9.32;;;1.30;99.90;;;;;;5092699;28;20128;-86
2021/12/21 03:50:31;;;;;;;17.90;8.85;;;1.30;99.90;;;;;;5060747;28;20107;-85
2021/12/21 03:52:57;;;;;;;18.58;8.73;;;1.30;99.90;;;;;;5075349;28;20024;-86
2021/12/21 03:55:23;;;;;;;17.90;9.15;;;1.20;99.90;;;;;;5060116;28;20025;-86
2021/12/21 03:57:48;;;;;;;20.45;8.75;;;1.20;99.90;;;;;;5058577;28;20067;-86
2021/12/21 04:00:15;;;;;;;20.00;8.77;;;1.20;99.90;;;;;;5075425;28;20442;-86
2021/12/21 04:02:41;;;;;;;20.17;8.98;;;1.20;99.90;;;;;;5075071;28;20070;-86
2021/12/21 04:05:08;;;;;;;17.05;7.85;;;1.20;99.90;;;;;;5058200;28;20025;-86
2021/12/21 04:07:33;;;;;;;20.30;7.88;;;1.20;99.90;;;;;;5061135;28;20024;-86
2021/12/21 04:09:59;;;;;;;17.25;8.85;;;1.10;99.90;;;;;;5058136;28;20013;-86
2021/12/21 04:12:25;;;;;;;16.77;8.10;;;1.10;99.90;;;;;;5075321;28;20024;-85
2021/12/21 04:14:52;;;;;;;24.27;10.52;;;1.10;99.90;;;;;;5056319;28;20016;-86
2021/12/21 04:17:22;;;;;;;22.80;9.27;;;1.10;99.90;;;;;;5074917;28;20497;-85
2021/12/21 04:19:49;;;;;;;15.63;8.50;;;1.00;99.90;;;;;;5057779;28;20107;-86
2021/12/21 04:22:16;;;;;;;21.50;8.52;;;1.10;99.90;;;;;;5074504;28;20029;-86
2021/12/21 04:24:46;;;;;;;18.67;8.38;;;1.10;99.90;;;;;;5057261;28;20063;-85
2021/12/21 04:27:11;;;;;;;22.23;9.77;;;1.00;99.90;;;;;;5074458;28;20013;-85
2021/12/21 04:29:37;;;;;;;16.42;8.98;;;1.00;99.90;;;;;;5049539;28;20070;-85
2021/12/21 04:32:03;;;;;;;20.92;10.60;;;1.00;99.90;;;;;;5057673;28;20078;-85
2021/12/21 04:34:29;;;;;;;25.55;9.52;;;1.00;99.90;;;;;;5076808;28;20032;-85
2021/12/21 04:36:55;;;;;;;15.80;8.43;;;1.00;99.90;;;;;;5077860;28;20032;-85
2021/12/21 04:39:34;;;;;;;18.85;9.23;;;1.00;99.90;;;;;;5060998;28;20020;-85
2021/12/21 04:42:00;;;;;;;19.27;8.20;;;1.00;99.90;;;;;;5062559;28;20381;-85
2021/12/21 04:44:26;;;;;;;23.70;9.95;;;0.90;99.90;;;;;;5077510;28;20012;-85
2021/12/21 04:46:52;;;;;;;16.58;7.50;;;0.90;99.90;;;;;;5077535;28;20039;-85
2021/12/21 04:49:17;;;;;;;18.35;8.73;;;0.90;99.90;;;;;;5077410;28;20492;-85
2021/12/21 04:51:43;;;;;;;16.65;8.13;;;0.90;99.90;;;;;;5060743;28;20024;-85
2021/12/21 04:54:09;;;;;;;18.90;8.63;;;0.90;99.90;;;;;;5077397;28;20031;-85
2021/12/21 04:56:38;;;;;;;18.08;8.18;;;0.90;99.90;;;;;;5077400;28;20032;-85
2021/12/21 04:59:08;;;;;;;16.08;8.25;;;0.90;99.90;;;;;;5078937;28;20050;-84
2021/12/21 05:01:34;;;;;;;21.42;9.00;;;0.90;99.90;;;;;;5077258;28;20028;-85
2021/12/21 05:03:59;;;;;;;16.50;8.48;;;0.90;99.90;;;;;;5077331;28;20021;-85
2021/12/21 05:06:26;;;;;;;18.27;8.30;;;0.90;99.90;;;;;;5060664;28;20082;-85
2021/12/21 05:09:28;;;;;;;18.55;7.97;;;0.80;99.90;;;;;;5060725;28;20025;-85
2021/12/21 05:12:04;;;;;;;15.93;8.43;;;0.90;99.90;;;;;;5076317;28;20056;-85
2021/12/21 05:14:30;;;;;;;15.90;7.82;;;0.80;99.90;;;;;;5078055;28;20466;-85
2021/12/21 05:16:55;;;;;;;20.50;9.60;;;0.80;99.90;;;;;;5076826;28;20012;-85
2021/12/21 05:19:21;;;;;;;21.85;8.68;;;0.80;99.90;;;;;;5060147;28;20030;-85
2021/12/21 05:21:47;;;;;;;18.38;8.40;;;0.80;99.90;;;;;;5076337;28;20032;-85
2021/12/21 05:24:12;;;;;;;15.65;8.55;;;0.80;99.90;;;;;;5076477;28;20047;-85
2021/12/21 05:26:38;;;;;;;14.70;8.00;;;0.80;99.90;;;;;;5072719;28;20059;-85
2021/12/21 05:29:04;;;;;;;15.93;8.55;;;0.70;99.90;;;;;;5080081;28;20020;-85
2021/12/21 05:31:30;;;;;;;15.15;7.30;;;0.70;99.90;;;;;;5080281;28;20020;-85
2021/12/21 05:33:55;;;;;;;14.63;7.93;;;0.70;99.90;;;;;;5096904;28;20022;-85
2021/12/21 05:36:22;;;;;;;15.00;7.97;;;0.70;99.90;;;;;;5080002;28;20119;-85
2021/12/21 05:38:52;;;;;;;12.80;7.00;;;0.70;99.90;;;;;;5075275;23;20048;-82
2021/12/21 05:41:39;;;;;;;13.47;6.47;;;0.70;99.90;;;;;;5096796;28;20027;-82
2021/12/21 05:44:05;;;;;;;9.10;6.13;;;0.70;99.90;;;;;;5082786;28;20035;-83
2021/12/21 05:46:31;;;;;;;10.90;6.40;;;0.60;99.90;;;;;;5079487;28;20016;-83
2021/12/21 05:48:56;;;;;;;13.73;6.38;;;0.60;99.90;;;;;;5079594;28;20122;-83
2021/12/21 05:51:22;;;;;;;11.45;6.25;;;0.60;99.90;;;;;;5079489;28;20089;-83
2021/12/21 05:53:49;;;;;;;15.75;7.00;;;0.60;99.90;;;;;;5079612;28;20031;-83
2021/12/21 05:56:15;;;;;;;13.60;7.57;;;0.60;99.90;;;;;;5079431;28;20024;-83
2021/12/21 05:58:41;;;;;;;18.55;8.30;;;0.60;99.90;;;;;;5079675;28;20032;-83
2021/12/21 06:01:07;;;;;;;13.57;7.57;;;0.60;99.90;;;;;;5079435;28;20126;-84
2021/12/21 06:03:32;;;;;;;13.02;7.63;;;0.60;99.90;;;;;;5079808;28;20023;-82
2021/12/21 06:05:58;;;;;;;13.13;7.55;;;0.50;99.90;;;;;;5079556;28;20084;-83
2021/12/21 06:09:14;;;;;;;19.30;9.40;;;0.50;99.90;;;;;;5078909;28;20035;-83
2021/12/21 06:11:48;;;;;;;16.60;8.75;;;0.50;99.90;;;;;;5113107;28;20024;-83
2021/12/21 06:22:45;;;;;;;19.15;9.40;;;0.50;99.90;;;;;;5089307;28;20032;-82
2021/12/21 06:27:36;;;;;;;28.98;13.38;;;0.50;99.90;;;;;;5092246;28;20039;-84
2021/12/21 06:30:03;;;;;;;29.02;12.88;;;0.50;99.90;;;;;;5093050;28;20023;-85
2021/12/21 06:32:29;;;;;;;28.42;12.82;;;0.50;99.90;;;;;;5078891;28;20358;-85
2021/12/21 06:34:55;;;;;;;28.38;12.57;;;0.50;99.90;;;;;;5079229;28;20019;-85
2021/12/21 06:37:21;;;;;;;24.13;13.05;;;0.50;99.90;;;;;;5079009;28;20428;-85
2021/12/21 06:39:48;;;;;;;30.60;13.55;;;0.60;99.90;;;;;;5092922;28;20488;-85
2021/12/21 06:42:15;;;;;;;26.38;14.35;;;0.50;99.90;;;;;;5078941;28;20044;-82
2021/12/21 06:44:44;;;;;;;25.48;12.85;;;0.50;99.90;;;;;;5092215;28;20035;-82
2021/12/21 06:52:41;;;;;;;30.20;14.30;;;0.50;99.90;;;;;;5113543;28;20043;-82
2021/12/21 06:55:07;;;;;;;27.55;13.13;;;0.50;99.90;;;;;;5075421;28;20017;-82
2021/12/21 06:57:34;;;;;;;25.45;14.27;;;0.50;99.90;;;;;;5089347;28;20040;-82
2021/12/21 07:00:02;;;;;;;29.13;13.60;;;0.50;99.90;;;;;;5076963;28;20016;-83
2021/12/21 07:02:28;;;;;;;28.48;13.38;;;0.50;99.90;;;;;;5077029;28;20020;-83
2021/12/21 07:04:55;;;;;;;26.00;14.43;;;0.50;99.90;;;;;;5072541;28;20031;-83
2021/12/21 07:07:21;;;;;;;26.27;14.30;;;0.50;99.90;;;;;;5094199;28;20062;-83
2021/12/21 07:09:57;;;;;;;30.02;14.32;;;0.50;99.90;;;;;;5076972;28;20044;-83
2021/12/21 07:20:17;;;;;;;30.10;14.52;;;0.60;99.90;;;;;;5100146;28;20484;-83
2021/12/21 07:22:42;;;;;;;31.35;14.75;;;0.60;99.90;;;;;;5096952;28;20047;-83
2021/12/21 07:25:08;;;;;;;33.72;15.80;;;0.60;99.90;;;;;;5080129;28;20024;-83
2021/12/21 07:27:34;;;;;;;24.35;14.25;;;0.50;99.90;;;;;;5115540;28;20023;-82
2021/12/21 07:30:00;;;;;;;29.38;14.77;;;0.50;99.90;;;;;;5080571;28;20036;-83
2021/12/21 07:32:25;;;;;;;33.97;14.68;;;0.50;99.90;;;;;;5081828;28;20499;-83
2021/12/21 07:34:51;;;;;;;32.67;13.90;;;0.60;99.90;;;;;;5098741;28;20028;-83
2021/12/21 07:37:18;;;;;;;31.35;16.52;;;0.60;99.90;;;;;;5098694;28;20027;-84
2021/12/21 07:39:44;;;;;;;30.40;14.57;;;0.60;99.90;;;;;;5098450;28;20044;-84
2021/12/21 07:42:09;;;;;;;26.90;14.52;;;0.60;99.90;;;;;;5098456;28;20152;-84
2021/12/21 07:44:35;;;;;;;29.95;14.65;;;0.60;99.90;;;;;;5098594;28;20054;-84
2021/12/21 07:47:01;;;;;;;29.95;14.05;;;0.60;99.90;;;;;;5098814;28;20118;-83
2021/12/21 07:49:27;;;;;;;31.42;15.15;;;0.60;99.90;;;;;;5081530;28;20054;-84
2021/12/21 07:51:52;;;;;;;33.03;15.07;;;0.60;99.90;;;;;;5080986;28;20598;-84
2021/12/21 07:54:18;;;;;;;25.33;14.18;;;0.60;99.90;;;;;;5098299;28;20125;-84
2021/12/21 07:56:44;;;;;;;29.33;15.77;;;0.60;99.90;;;;;;5080207;28;20100;-83
2021/12/21 07:59:11;;;;;;;34.78;16.45;;;0.60;99.90;;;;;;5061373;28;20473;-84
2021/12/21 08:01:38;;;;;;;30.33;14.52;;;0.60;99.90;;;;;;5096197;28;20020;-84
2021/12/21 08:04:07;;;;;;;30.70;16.08;;;0.60;99.90;;;;;;5084390;28;20039;-83
2021/12/21 08:06:34;;;;;;;28.92;14.98;;;0.60;99.90;;;;;;5077638;28;20378;-81
2021/12/21 08:09:02;;;;;;;30.20;14.93;;;0.60;99.90;;;;;;5059488;28;20085;-81
2021/12/21 08:12:12;;;;;;;30.05;15.80;;;0.60;99.90;;;;;;5074651;28;20046;-81
2021/12/21 08:14:13;;;;;;;28.33;14.35;;;0.60;99.90;;;;;;5079125;28;20407;-82
2021/12/21 08:16:39;;;;;;;26.70;14.90;;;0.60;99.90;;;;;;5077502;28;20028;-82
2021/12/21 08:19:05;;;;;;;31.38;16.65;;;0.60;99.90;;;;;;5094240;28;20031;-82
2021/12/21 08:21:31;;;;;;;32.33;16.23;;;0.60;99.90;;;;;;5095398;28;20407;-83
2021/12/21 08:23:57;;;;;;;34.15;17.52;;;0.50;99.90;;;;;;5077765;28;20494;-85
2021/12/21 08:26:23;;;;;;;30.80;15.63;;;0.50;99.90;;;;;;5094077;28;20593;-79
2021/12/21 08:28:49;;;;;;;31.83;14.75;;;0.50;99.90;;;;;;5095242;28;20024;-79
2021/12/21 08:31:16;;;;;;;31.30;15.30;;;0.60;99.90;;;;;;5093950;28;20119;-79
2021/12/21 08:33:42;;;;;;;28.35;14.85;;;0.60;99.90;;;;;;5094113;28;20115;-80
2021/12/21 08:36:10;;;;;;;31.45;16.05;;;0.60;99.90;;;;;;5077197;28;20111;-79
2021/12/21 08:38:38;;;;;;;30.85;15.57;;;0.60;99.90;;;;;;5077404;28;20541;-81
2021/12/21 08:41:04;;;;;;;33.30;16.95;;;0.60;99.90;;;;;;5101327;28;20173;-78
2021/12/21 08:43:32;;;;;;;35.70;15.70;;;0.60;99.90;;;;;;5076747;28;20034;-78
2021/12/21 08:45:58;;;;;;;34.95;15.70;;;0.60;99.90;;;;;;5081560;28;20035;-84
2021/12/21 08:48:26;;;;;;;31.65;16.08;;;0.60;99.90;;;;;;5070595;28;20046;-84
2021/12/21 08:50:54;;;;;;;31.60;17.48;;;0.60;99.90;;;;;;5078039;28;20024;-85
2021/12/21 08:53:22;;;;;;;31.13;15.88;;;0.60;99.90;;;;;;5097817;28;20011;-86
2021/12/21 08:55:47;;;;;;;31.52;16.58;;;0.70;99.90;;;;;;5095864;28;20072;-86
2021/12/21 08:58:15;;;;;;;31.17;16.08;;;0.70;99.90;;;;;;5097576;28;20418;-86
2021/12/21 09:00:41;;;;;;;32.78;17.70;;;0.70;99.90;;;;;;5094368;28;20023;-86
2021/12/21 09:03:08;;;;;;;34.35;17.45;;;0.70;99.90;;;;;;5097173;28;20012;-86
2021/12/21 09:05:34;;;;;;;30.13;16.50;;;0.70;99.90;;;;;;5080240;28;20210;-86
2021/12/21 09:08:02;;;;;;;33.80;17.38;;;0.80;99.90;;;;;;5080133;28;20020;-86
2021/12/21 09:10:29;;;;;;;33.28;17.30;;;0.80;99.90;;;;;;5077629;28;20016;-86
2021/12/21 09:12:55;;;;;;;33.95;18.60;;;0.80;99.90;;;;;;5096828;28;20028;-86
2021/12/21 09:15:26;;;;;;;32.95;18.50;;;0.90;99.90;;;;;;5096746;28;20361;-86
2021/12/21 09:17:52;;;;;;;39.00;19.05;;;0.80;99.90;;;;;;5114849;28;20023;-86
2021/12/21 09:20:20;;;;;;;35.15;19.25;;;0.90;99.90;;;;;;5079954;28;20024;-86
2021/12/21 09:22:47;;;;;;;38.55;19.75;;;0.90;99.90;;;;;;5093851;28;20046;-86
2021/12/21 09:25:14;;;;;;;31.05;17.50;;;1.00;99.90;;;;;;5078191;28;20024;-86
2021/12/21 09:27:40;;;;;;;37.67;18.88;;;1.00;99.90;;;;;;5076802;28;20055;-85
2021/12/21 09:30:09;;;;;;;35.55;19.45;;;1.00;99.90;;;;;;5108016;28;20112;-85
2021/12/21 09:32:35;;;;;;;35.20;17.75;;;1.00;99.90;;;;;;5096155;28;20369;-85
2021/12/21 09:35:01;;;;;;;36.85;19.67;;;1.10;99.90;;;;;;5063527;28;20028;-85
2021/12/21 09:37:27;;;;;;;35.25;19.20;;;1.10;99.90;;;;;;5076672;28;20104;-85
2021/12/21 09:39:55;;;;;;;36.00;19.58;;;1.10;99.90;;;;;;5076709;28;20497;-85
2021/12/21 09:42:23;;;;;;;33.05;18.17;;;1.20;99.90;;;;;;5077098;28;20363;-85
2021/12/21 09:44:49;;;;;;;31.77;17.00;;;1.20;99.90;;;;;;5076222;28;20024;-85
2021/12/21 09:47:16;;;;;;;36.38;19.42;;;1.20;99.90;;;;;;5076714;28;20019;-85
2021/12/21 09:49:44;;;;;;;35.20;18.13;;;1.30;99.90;;;;;;5059442;28;20020;-82
2021/12/21 09:52:12;;;;;;;31.10;17.20;;;1.30;99.90;;;;;;5076430;28;20027;-83
2021/12/21 09:54:44;;;;;;;35.13;18.08;;;1.30;99.90;;;;;;5076059;28;20016;-83
2021/12/21 09:57:10;;;;;;;33.17;19.45;;;1.40;99.90;;;;;;5059423;28;20094;-84
2021/12/21 09:59:36;;;;;;;34.13;18.70;;;1.40;99.90;;;;;;5059192;28;20035;-83
2021/12/21 10:02:03;;;;;;;37.97;19.38;;;1.40;99.90;;;;;;5076334;28;20028;-83
2021/12/21 10:04:29;;;;;;;37.15;19.45;;;1.50;99.90;;;;;;5076098;28;20031;-83
2021/12/21 10:06:57;;;;;;;32.95;19.00;;;1.50;99.90;;;;;;5075894;28;20024;-82
2021/12/21 10:09:31;;;;;;;31.63;18.27;;;1.50;99.90;;;;;;5075941;28;20016;-82
2021/12/21 10:11:57;;;;;;;34.67;19.27;;;1.50;99.90;;;;;;5094678;28;20016;-82
2021/12/21 10:14:26;;;;;;;34.88;18.10;;;1.60;99.90;;;;;;5059204;28;20063;-83
2021/12/21 10:17:06;;;;;;;43.53;20.98;;;1.60;99.90;;;;;;5093852;28;20057;-83
2021/12/21 10:19:37;;;;;;;38.88;21.27;;;1.60;99.90;;;;;;5059349;28;20580;-83
2021/12/21 10:22:10;;;;;;;45.20;21.52;;;1.70;99.90;;;;;;5075695;28;20097;-83
2021/12/21 10:24:48;;;;;;;35.45;20.27;;;1.70;99.90;;;;;;5093927;28;20031;-83
2021/12/21 10:27:15;;;;;;;35.95;20.15;;;1.80;99.90;;;;;;5076337;28;20469;-83
2021/12/21 10:29:50;;;;;;;36.13;19.75;;;1.80;99.90;;;;;;5076080;28;20032;-83
2021/12/21 10:32:21;;;;;;;40.35;20.98;;;1.80;99.90;;;;;;5076000;28;20024;-83
2021/12/21 10:35:01;;;;;;;;;;;1.90;99.90;;;;;;5076624;28;20427;-84
2021/12/21 10:37:31;;;;;;;39.83;20.43;;;1.90;99.90;;;;;;5075908;28;19951;-82
2021/12/21 10:40:17;;;;;;;39.17;21.25;;;2.00;99.90;;;;;;5081324;28;20039;-82
2021/12/21 10:43:04;;;;;;;39.67;24.42;;;2.00;99.90;;;;;;5075570;28;20036;-83
2021/12/21 10:45:34;;;;;;;37.00;21.95;;;2.10;99.90;;;;;;5075404;28;20078;-83
2021/12/21 10:48:01;;;;;;;38.13;21.10;;;2.10;99.90;;;;;;5076803;28;20024;-83
2021/12/21 10:50:29;;;;;;;36.20;22.17;;;2.20;99.90;;;;;;5062740;28;20020;-83
2021/12/21 10:52:59;;;;;;;43.92;21.33;;;2.20;99.90;;;;;;5062798;28;20016;-83
2021/12/21 10:55:28;;;;;;;34.72;21.52;;;2.30;99.90;;;;;;5079688;28;20126;-83
2021/12/21 10:58:16;;;;;;;38.80;20.88;;;2.30;99.90;;;;;;5063126;28;20392;-83
2021/12/21 11:00:52;;;;;;;36.80;22.20;;;2.30;99.90;;;;;;5079076;28;20024;-83
2021/12/21 11:03:28;;;;;;;36.75;21.83;;;2.40;99.90;;;;;;5097038;28;20122;-83
2021/12/21 11:05:53;;;;;;;36.67;22.15;;;2.50;99.90;;;;;;5080435;28;20040;-84
2021/12/21 11:08:24;;;;;;;40.15;23.05;;;2.50;99.90;;;;;;5062506;28;20038;-83
2021/12/21 11:10:51;;;;;;;43.40;22.67;;;2.60;99.90;;;;;;5078954;28;20028;-83
2021/12/21 11:13:17;;;;;;;39.78;22.67;;;2.70;99.90;;;;;;5078896;28;20115;-83
2021/12/21 11:15:52;;;;;;;39.60;23.25;;;2.80;99.90;;;;;;5096647;28;20059;-83
2021/12/21 11:18:20;;;;;;;38.38;22.10;;;2.80;99.90;;;;;;5078782;28;20027;-83
2021/12/21 11:20:48;;;;;;;37.22;21.27;;;3.00;99.90;;;;;;5062184;28;20028;-83
2021/12/21 11:23:16;;;;;;;36.97;23.77;;;3.10;99.90;;;;;;5078563;28;20062;-84
2021/12/21 11:25:44;;;;;;;36.95;22.75;;;3.20;99.90;;;;;;5078825;28;20373;-84
2021/12/21 11:28:20;;;;;;;33.58;22.50;;;3.30;99.90;;;;;;5096552;28;20035;-84
2021/12/21 11:30:47;;;;;;;41.97;24.13;;;3.40;99.90;;;;;;5078938;28;20024;-84
2021/12/21 11:33:17;;;;;;;34.08;23.85;;;3.50;99.90;;;;;;5062272;28;20450;-85
2021/12/21 11:38:12;;;;;;;36.05;22.92;;;3.60;99.90;;;;;;5078891;28;20051;-84
2021/12/21 11:40:41;;;;;;;39.60;24.60;;;3.70;99.90;;;;;;5091031;28;20054;-85
2021/12/21 11:43:22;;;;;;;38.85;24.20;;;3.70;99.90;;;;;;5110954;28;20026;-85
2021/12/21 11:46:07;;;;;;;37.55;23.25;;;3.70;99.90;;;;;;5085399;28;20024;-84
2021/12/21 11:48:50;;;;;;;36.75;23.45;;;3.80;99.90;;;;;;5095606;28;20032;-85
2021/12/21 11:51:22;;;;;;;35.58;22.27;;;3.80;99.90;;;;;;5087718;28;20020;-85
2021/12/21 11:53:48;;;;;;;38.75;22.80;;;3.90;99.90;;;;;;5080757;28;20065;-85
2021/12/21 11:56:21;;;;;;;40.45;24.20;;;4.00;99.90;;;;;;5080784;28;20031;-84
2021/12/21 11:58:50;;;;;;;36.10;22.73;;;4.10;99.90;;;;;;5098323;28;20055;-85
2021/12/21 12:01:22;;;;;;;37.47;23.98;;;4.20;99.90;;;;;;5098013;28;20447;-84
2021/12/21 12:04:04;;;;;;;38.05;24.90;;;4.30;99.90;;;;;;5091823;28;20028;-84
2021/12/21 12:06:55;;;;;;;36.00;22.65;;;4.50;99.90;;;;;;5093471;28;20035;-84
2021/12/21 12:09:32;;;;;;;40.13;22.73;;;4.60;99.90;;;;;;5098332;28;20051;-84
2021/12/21 12:12:18;;;;;;;32.20;20.13;;;4.80;99.90;;;;;;5072087;28;20032;-84
2021/12/21 12:14:58;;;;;;;28.65;19.58;;;5.00;99.90;;;;;;5077880;28;20453;-84
2021/12/21 12:17:26;;;;;;;33.77;19.23;;;5.10;99.90;;;;;;5078039;28;20107;-84
2021/12/21 12:19:55;;;;;;;27.17;18.73;;;5.10;99.90;;;;;;5077956;28;20309;-85
2021/12/21 12:22:38;;;;;;;26.55;18.70;;;5.20;99.90;;;;;;5078098;28;20028;-85
2021/12/21 12:25:06;;;;;;;30.45;19.67;;;5.20;99.90;;;;;;5078343;28;20026;-86
2021/12/21 12:27:32;;;;;;;29.98;17.23;;;5.30;99.90;;;;;;5095660;28;20542;-85
2021/12/21 12:30:36;;;;;;;29.85;17.20;;;5.30;99.90;;;;;;5080823;28;20031;-85
2021/12/21 12:33:18;;;;;;;;;;;;;;;;;;;;;
2021/12/21 12:36:21;;;;;;;25.70;16.25;;;5.50;99.90;;;;;;5110318;28;20480;-85
2021/12/21 12:38:55;;;;;;;28.38;14.98;;;5.60;99.90;;;;;;5097683;28;20047;-85
2021/12/21 12:41:24;;;;;;;26.30;15.70;;;5.60;99.90;;;;;;5115895;28;20058;-85
2021/12/21 12:43:52;;;;;;;25.52;15.35;;;5.60;99.90;;;;;;5095048;28;20028;-85
2021/12/21 12:46:27;;;;;;;28.85;16.42;;;5.70;99.90;;;;;;5095792;28;20016;-85
2021/12/21 12:48:53;;;;;;;23.13;14.73;;;5.70;99.90;;;;;;5094560;28;20039;-84
2021/12/21 12:51:45;;;;;;;21.85;14.80;;;5.80;99.90;;;;;;5078741;28;20020;-86
2021/12/21 12:54:16;;;;;;;25.20;14.70;;;5.80;99.90;;;;;;5094913;28;20025;-85
2021/12/21 12:56:42;;;;;;;29.33;16.85;;;5.90;99.90;;;;;;5094254;28;20027;-85
2021/12/21 12:59:23;;;;;;;22.75;15.50;;;5.90;99.90;;;;;;5076899;28;20392;-85
2021/12/21 13:01:59;;;;;;;27.27;16.25;;;6.00;99.90;;;;;;5076721;28;20395;-86
2021/12/21 13:04:30;;;;;;;26.00;15.75;;;6.00;99.90;;;;;;5089670;28;20031;-85
2021/12/21 13:06:56;;;;;;;23.40;15.82;;;6.10;99.90;;;;;;5081337;28;20024;-85
2021/12/21 13:09:23;;;;;;;24.50;15.38;;;6.10;99.90;;;;;;5072319;28;20031;-86
2021/12/21 13:11:54;;;;;;;27.75;15.85;;;6.10;99.90;;;;;;5078218;28;20044;-85
2021/12/21 13:14:28;;;;;;;25.83;14.02;;;6.20;99.90;;;;;;5066813;28;20020;-85
2021/12/21 13:16:58;;;;;;;24.73;15.20;;;6.20;99.90;;;;;;5084751;28;20021;-85
2021/12/21 13:19:26;;;;;;;28.73;16.08;;;6.20;99.90;;;;;;5066870;28;20059;-86
2021/12/21 13:21:57;;;;;;;24.92;14.60;;;6.20;99.90;;;;;;5057365;28;20081;-85
2021/12/21 13:24:29;;;;;;;24.58;14.43;;;6.20;99.90;;;;;;5072084;28;20028;-86
2021/12/21 13:26:57;;;;;;;22.42;14.50;;;6.20;99.90;;;;;;5092944;28;20035;-85
2021/12/21 13:29:28;;;;;;;26.25;14.45;;;6.20;99.90;;;;;;5094563;28;20499;-85
2021/12/21 13:31:55;;;;;;;26.83;15.27;;;6.30;99.90;;;;;;5093773;28;20483;-85
2021/12/21 13:34:23;;;;;;;26.77;14.98;;;6.40;99.90;;;;;;5095139;28;20055;-85
2021/12/21 13:36:53;;;;;;;23.70;15.10;;;6.40;99.90;;;;;;5076933;28;20101;-85
2021/12/21 13:39:29;;;;;;;26.80;14.45;;;6.50;99.90;;;;;;5093311;28;20048;-85
2021/12/21 13:42:27;;;;;;;21.10;12.20;;;6.50;99.90;;;;;;5087329;28;20572;-85
2021/12/21 13:45:03;;;;;;;24.38;13.43;;;6.50;99.90;;;;;;5072852;28;20039;-85
2021/12/21 13:47:34;;;;;;;23.05;12.88;;;6.50;99.90;;;;;;5076438;28;20032;-85
2021/12/21 13:50:05;;;;;;;;;;;6.50;99.90;;;;;;5094411;28;20012;-85
2021/12/21 13:52:41;;;;;;;18.92;12.15;;;6.40;99.90;;;;;;5086262;28;20316;-85
2021/12/21 13:55:38;;;;;;;24.77;12.90;;;6.30;99.90;;;;;;5068864;28;20025;-85